createdAt,value
2023-10-23T16:05:38.986Z,22.30
2023-10-23T16:15:40.451Z,22.30
2023-10-23T16:25:41.940Z,22.40
2023-10-23T16:35:43.556Z,22.40
2023-10-23T16:45:45.054Z,22.30
2023-10-23T16:55:46.542Z,22.20
2023-10-23T17:05:48.064Z,22.30
2023-10-23T17:15:51.566Z,22.30
2023-10-23T17:25:53.314Z,22.20
2023-10-23T17:36:00.934Z,22.10
2023-10-23T17:46:02.688Z,22.00
2023-10-23T17:56:04.335Z,21.90
2023-10-23T18:06:06.015Z,22.00
2023-10-23T18:16:07.545Z,21.70
2023-10-23T18:26:09.080Z,21.20
2023-10-23T18:36:10.605Z,21.90
2023-10-23T18:46:12.289Z,21.40
2023-10-23T18:56:17.052Z,21.00
2023-10-23T19:06:18.506Z,21.50
2023-10-23T19:16:20.059Z,21.40
2023-10-23T19:26:24.773Z,21.20
2023-10-23T19:36:27.509Z,21.10
2023-10-23T19:46:35.569Z,22.60
2023-10-23T19:56:39.749Z,21.20
2023-10-23T20:06:41.289Z,21.10
2023-10-23T20:37:13.528Z,19.60
2023-10-23T20:47:18.257Z,20.20
2023-10-23T20:57:19.998Z,19.80
2023-10-23T21:07:21.457Z,19.90
2023-10-23T21:17:22.999Z,19.80
2023-10-23T21:27:24.541Z,19.70
2023-10-23T21:37:26.119Z,19.60
2023-10-23T21:47:27.782Z,19.50
2023-10-23T21:57:31.429Z,19.50
2023-10-23T22:07:33.018Z,19.40
2023-10-23T22:17:34.656Z,18.80
2023-10-23T22:27:36.156Z,19.00
2023-10-23T22:47:59.701Z,19.20
2023-10-23T22:58:01.193Z,19.10
2023-10-23T23:08:02.781Z,19.10
2023-10-23T23:18:04.429Z,19.00
2023-10-23T23:28:07.023Z,19.00
2023-10-23T23:38:08.573Z,18.90
2023-10-23T23:48:10.064Z,18.80
2023-10-23T23:58:11.552Z,18.80
